sensor_id;sensor_type;location;lat;lon;timestamp;P1;durP1;ratioP1;P2;durP2;ratioP2
80776;SDS011;70169;51.262;6.336;2023-10-08T00:00:32;6.63;;;3.17;;
80776;SDS011;70169;51.262;6.336;2023-10-08T00:03:11;5.95;;;3.30;;
80776;SDS011;70169;51.262;6.336;2023-10-08T00:05:27;5.43;;;3.05;;
80776;SDS011;70169;51.262;6.336;2023-10-08T00:07:43;6.93;;;3.43;;
80776;SDS011;70169;51.262;6.336;2023-10-08T00:09:58;6.30;;;3.23;;
80776;SDS011;70169;51.262;6.336;2023-10-08T00:12:13;5.47;;;3.07;;
80776;SDS011;70169;51.262;6.336;2023-10-08T00:14:31;7.45;;;3.50;;
80776;SDS011;70169;51.262;6.336;2023-10-08T00:16:58;7.35;;;3.28;;
80776;SDS011;70169;51.262;6.336;2023-10-08T00:19:15;6.00;;;3.13;;
80776;SDS011;70169;51.262;6.336;2023-10-08T00:21:32;6.85;;;3.33;;
80776;SDS011;70169;51.262;6.336;2023-10-08T00:23:51;7.40;;;3.15;;
80776;SDS011;70169;51.262;6.336;2023-10-08T00:26:13;6.70;;;3.30;;
80776;SDS011;70169;51.262;6.336;2023-10-08T00:28:33;7.47;;;3.47;;
80776;SDS011;70169;51.262;6.336;2023-10-08T00:30:49;8.70;;;3.67;;
80776;SDS011;70169;51.262;6.336;2023-10-08T00:33:04;5.68;;;3.35;;
80776;SDS011;70169;51.262;6.336;2023-10-08T00:35:20;6.50;;;3.23;;
80776;SDS011;70169;51.262;6.336;2023-10-08T00:37:35;6.85;;;3.05;;
80776;SDS011;70169;51.262;6.336;2023-10-08T00:39:50;7.77;;;3.47;;
80776;SDS011;70169;51.262;6.336;2023-10-08T00:42:06;7.47;;;3.65;;
80776;SDS011;70169;51.262;6.336;2023-10-08T00:44:24;6.32;;;3.58;;
80776;SDS011;70169;51.262;6.336;2023-10-08T00:46:44;5.95;;;3.10;;
80776;SDS011;70169;51.262;6.336;2023-10-08T00:49:03;6.32;;;3.25;;
80776;SDS011;70169;51.262;6.336;2023-10-08T00:51:38;5.57;;;3.20;;
80776;SDS011;70169;51.262;6.336;2023-10-08T00:53:57;5.40;;;3.22;;
80776;SDS011;70169;51.262;6.336;2023-10-08T00:56:21;6.75;;;3.13;;
80776;SDS011;70169;51.262;6.336;2023-10-08T00:58:43;6.47;;;3.22;;
80776;SDS011;70169;51.262;6.336;2023-10-08T01:01:04;7.30;;;2.85;;
80776;SDS011;70169;51.262;6.336;2023-10-08T01:03:26;6.45;;;3.53;;
80776;SDS011;70169;51.262;6.336;2023-10-08T01:05:42;9.10;;;3.47;;
80776;SDS011;70169;51.262;6.336;2023-10-08T01:08:01;7.15;;;3.22;;
80776;SDS011;70169;51.262;6.336;2023-10-08T01:10:21;8.40;;;3.70;;
80776;SDS011;70169;51.262;6.336;2023-10-08T01:12:39;6.30;;;3.47;;
80776;SDS011;70169;51.262;6.336;2023-10-08T01:15:04;6.15;;;3.38;;
80776;SDS011;70169;51.262;6.336;2023-10-08T01:17:31;5.57;;;2.92;;
80776;SDS011;70169;51.262;6.336;2023-10-08T01:19:47;6.25;;;3.30;;
80776;SDS011;70169;51.262;6.336;2023-10-08T01:22:09;6.63;;;3.30;;
80776;SDS011;70169;51.262;6.336;2023-10-08T01:26:49;5.88;;;3.55;;
80776;SDS011;70169;51.262;6.336;2023-10-08T01:29:09;4.87;;;2.87;;
80776;SDS011;70169;51.262;6.336;2023-10-08T01:31:26;6.60;;;3.20;;
80776;SDS011;70169;51.262;6.336;2023-10-08T01:33:41;6.20;;;3.30;;
80776;SDS011;70169;51.262;6.336;2023-10-08T01:36:05;5.72;;;3.38;;
80776;SDS011;70169;51.262;6.336;2023-10-08T01:38:23;7.38;;;3.58;;
80776;SDS011;70169;51.262;6.336;2023-10-08T01:40:39;5.47;;;3.15;;
80776;SDS011;70169;51.262;6.336;2023-10-08T01:42:57;4.53;;;2.42;;
80776;SDS011;70169;51.262;6.336;2023-10-08T01:45:16;4.95;;;2.72;;
80776;SDS011;70169;51.262;6.336;2023-10-08T01:47:33;5.45;;;3.00;;
80776;SDS011;70169;51.262;6.336;2023-10-08T01:49:48;5.83;;;3.20;;
80776;SDS011;70169;51.262;6.336;2023-10-08T01:52:05;6.53;;;3.08;;
80776;SDS011;70169;51.262;6.336;2023-10-08T01:54:28;5.13;;;3.08;;
80776;SDS011;70169;51.262;6.336;2023-10-08T01:56:44;5.65;;;3.20;;
80776;SDS011;70169;51.262;6.336;2023-10-08T01:58:59;5.63;;;3.23;;
80776;SDS011;70169;51.262;6.336;2023-10-08T02:01:21;3.72;;;2.20;;
80776;SDS011;70169;51.262;6.336;2023-10-08T02:03:37;5.07;;;3.10;;
80776;SDS011;70169;51.262;6.336;2023-10-08T02:05:53;5.07;;;2.45;;
80776;SDS011;70169;51.262;6.336;2023-10-08T02:08:09;5.30;;;2.50;;
80776;SDS011;70169;51.262;6.336;2023-10-08T02:10:25;5.18;;;2.42;;
80776;SDS011;70169;51.262;6.336;2023-10-08T02:12:40;6.30;;;2.87;;
80776;SDS011;70169;51.262;6.336;2023-10-08T02:14:56;5.95;;;2.88;;
80776;SDS011;70169;51.262;6.336;2023-10-08T02:17:11;4.70;;;2.50;;
80776;SDS011;70169;51.262;6.336;2023-10-08T02:19:28;5.47;;;2.85;;
80776;SDS011;70169;51.262;6.336;2023-10-08T02:21:43;5.97;;;2.85;;
80776;SDS011;70169;51.262;6.336;2023-10-08T02:24:01;5.85;;;2.58;;
80776;SDS011;70169;51.262;6.336;2023-10-08T02:26:18;4.70;;;2.22;;
80776;SDS011;70169;51.262;6.336;2023-10-08T02:28:34;4.30;;;2.53;;
80776;SDS011;70169;51.262;6.336;2023-10-08T02:30:49;4.27;;;2.40;;
80776;SDS011;70169;51.262;6.336;2023-10-08T02:33:05;5.43;;;2.90;;
80776;SDS011;70169;51.262;6.336;2023-10-08T02:35:29;5.10;;;2.75;;
80776;SDS011;70169;51.262;6.336;2023-10-08T02:37:44;6.30;;;3.37;;
80776;SDS011;70169;51.262;6.336;2023-10-08T02:40:00;5.30;;;2.72;;
80776;SDS011;70169;51.262;6.336;2023-10-08T02:42:26;4.72;;;2.33;;
80776;SDS011;70169;51.262;6.336;2023-10-08T02:44:42;5.53;;;2.90;;
80776;SDS011;70169;51.262;6.336;2023-10-08T02:46:57;6.00;;;2.70;;
80776;SDS011;70169;51.262;6.336;2023-10-08T02:49:16;5.60;;;3.30;;
80776;SDS011;70169;51.262;6.336;2023-10-08T02:53:50;5.40;;;2.87;;
80776;SDS011;70169;51.262;6.336;2023-10-08T02:56:05;5.30;;;2.80;;
80776;SDS011;70169;51.262;6.336;2023-10-08T02:58:27;5.25;;;2.80;;
80776;SDS011;70169;51.262;6.336;2023-10-08T03:00:46;4.95;;;2.63;;
80776;SDS011;70169;51.262;6.336;2023-10-08T03:03:02;5.70;;;3.30;;
80776;SDS011;70169;51.262;6.336;2023-10-08T03:05:25;4.72;;;2.97;;
80776;SDS011;70169;51.262;6.336;2023-10-08T03:07:45;6.53;;;3.08;;
80776;SDS011;70169;51.262;6.336;2023-10-08T03:10:00;5.33;;;2.87;;
80776;SDS011;70169;51.262;6.336;2023-10-08T03:12:18;5.45;;;3.20;;
80776;SDS011;70169;51.262;6.336;2023-10-08T03:14:34;5.30;;;2.93;;
80776;SDS011;70169;51.262;6.336;2023-10-08T03:17:02;7.60;;;3.25;;
80776;SDS011;70169;51.262;6.336;2023-10-08T03:19:22;6.80;;;3.45;;
80776;SDS011;70169;51.262;6.336;2023-10-08T03:21:37;5.20;;;3.23;;
80776;SDS011;70169;51.262;6.336;2023-10-08T03:23:53;6.60;;;3.30;;
80776;SDS011;70169;51.262;6.336;2023-10-08T03:26:13;6.97;;;3.38;;
80776;SDS011;70169;51.262;6.336;2023-10-08T03:28:47;6.03;;;3.38;;
80776;SDS011;70169;51.262;6.336;2023-10-08T03:31:12;5.95;;;3.17;;
80776;SDS011;70169;51.262;6.336;2023-10-08T03:33:33;6.88;;;2.83;;
80776;SDS011;70169;51.262;6.336;2023-10-08T03:35:50;6.30;;;3.03;;
80776;SDS011;70169;51.262;6.336;2023-10-08T03:38:10;6.35;;;3.17;;
80776;SDS011;70169;51.262;6.336;2023-10-08T03:40:36;5.88;;;3.05;;
80776;SDS011;70169;51.262;6.336;2023-10-08T03:42:58;5.40;;;2.95;;
80776;SDS011;70169;51.262;6.336;2023-10-08T03:45:14;6.00;;;2.80;;
80776;SDS011;70169;51.262;6.336;2023-10-08T03:47:31;5.40;;;2.83;;
80776;SDS011;70169;51.262;6.336;2023-10-08T03:49:47;5.50;;;3.20;;
80776;SDS011;70169;51.262;6.336;2023-10-08T03:52:05;5.63;;;3.33;;
80776;SDS011;70169;51.262;6.336;2023-10-08T03:56:58;7.07;;;3.13;;
80776;SDS011;70169;51.262;6.336;2023-10-08T03:59:13;6.73;;;3.27;;
80776;SDS011;70169;51.262;6.336;2023-10-08T04:01:29;6.80;;;3.40;;
80776;SDS011;70169;51.262;6.336;2023-10-08T04:03:47;8.07;;;3.50;;
80776;SDS011;70169;51.262;6.336;2023-10-08T04:06:05;6.90;;;3.72;;
80776;SDS011;70169;51.262;6.336;2023-10-08T04:08:43;6.55;;;3.55;;
80776;SDS011;70169;51.262;6.336;2023-10-08T04:11:01;8.15;;;3.38;;
80776;SDS011;70169;51.262;6.336;2023-10-08T04:13:45;7.55;;;4.00;;
80776;SDS011;70169;51.262;6.336;2023-10-08T04:16:03;7.15;;;3.63;;
80776;SDS011;70169;51.262;6.336;2023-10-08T04:18:19;8.68;;;3.75;;
80776;SDS011;70169;51.262;6.336;2023-10-08T04:20:35;5.28;;;3.15;;
80776;SDS011;70169;51.262;6.336;2023-10-08T04:22:54;5.70;;;3.13;;
80776;SDS011;70169;51.262;6.336;2023-10-08T04:25:09;5.35;;;3.08;;
80776;SDS011;70169;51.262;6.336;2023-10-08T04:27:25;5.70;;;3.00;;
80776;SDS011;70169;51.262;6.336;2023-10-08T04:29:41;5.70;;;3.15;;
80776;SDS011;70169;51.262;6.336;2023-10-08T04:32:00;6.93;;;2.80;;
80776;SDS011;70169;51.262;6.336;2023-10-08T04:34:16;8.75;;;3.30;;
80776;SDS011;70169;51.262;6.336;2023-10-08T04:36:32;7.45;;;3.33;;
80776;SDS011;70169;51.262;6.336;2023-10-08T04:38:47;7.10;;;3.38;;
80776;SDS011;70169;51.262;6.336;2023-10-08T04:41:03;6.75;;;3.30;;
80776;SDS011;70169;51.262;6.336;2023-10-08T04:43:24;5.32;;;2.65;;
80776;SDS011;70169;51.262;6.336;2023-10-08T04:45:58;6.93;;;3.05;;
80776;SDS011;70169;51.262;6.336;2023-10-08T04:48:13;6.13;;;2.85;;
80776;SDS011;70169;51.262;6.336;2023-10-08T04:50:35;5.80;;;2.85;;
80776;SDS011;70169;51.262;6.336;2023-10-08T04:52:52;4.90;;;2.70;;
80776;SDS011;70169;51.262;6.336;2023-10-08T04:55:25;5.93;;;2.88;;
80776;SDS011;70169;51.262;6.336;2023-10-08T04:57:44;6.65;;;3.05;;
80776;SDS011;70169;51.262;6.336;2023-10-08T04:59:59;7.10;;;3.37;;
80776;SDS011;70169;51.262;6.336;2023-10-08T05:02:16;5.47;;;3.13;;
80776;SDS011;70169;51.262;6.336;2023-10-08T05:04:35;7.05;;;3.22;;
80776;SDS011;70169;51.262;6.336;2023-10-08T05:07:09;7.28;;;3.47;;
80776;SDS011;70169;51.262;6.336;2023-10-08T05:09:55;6.43;;;3.28;;
80776;SDS011;70169;51.262;6.336;2023-10-08T05:12:36;4.80;;;2.60;;
80776;SDS011;70169;51.262;6.336;2023-10-08T05:15:06;6.75;;;3.15;;
80776;SDS011;70169;51.262;6.336;2023-10-08T05:17:31;6.32;;;2.88;;
80776;SDS011;70169;51.262;6.336;2023-10-08T05:20:00;5.70;;;3.10;;
80776;SDS011;70169;51.262;6.336;2023-10-08T05:22:34;5.85;;;2.90;;
80776;SDS011;70169;51.262;6.336;2023-10-08T05:24:52;5.82;;;2.65;;
80776;SDS011;70169;51.262;6.336;2023-10-08T05:27:22;6.93;;;3.10;;
80776;SDS011;70169;51.262;6.336;2023-10-08T05:30:11;5.68;;;2.30;;
80776;SDS011;70169;51.262;6.336;2023-10-08T05:32:45;5.55;;;2.95;;
80776;SDS011;70169;51.262;6.336;2023-10-08T05:35:21;4.47;;;2.63;;
80776;SDS011;70169;51.262;6.336;2023-10-08T05:37:53;4.28;;;2.38;;
80776;SDS011;70169;51.262;6.336;2023-10-08T05:40:27;5.90;;;2.60;;
80776;SDS011;70169;51.262;6.336;2023-10-08T05:43:01;4.93;;;2.47;;
80776;SDS011;70169;51.262;6.336;2023-10-08T05:45:30;4.95;;;2.55;;
80776;SDS011;70169;51.262;6.336;2023-10-08T05:47:46;5.18;;;2.40;;
80776;SDS011;70169;51.262;6.336;2023-10-08T05:50:23;4.35;;;2.47;;
80776;SDS011;70169;51.262;6.336;2023-10-08T05:52:38;6.90;;;3.00;;
80776;SDS011;70169;51.262;6.336;2023-10-08T05:55:06;5.20;;;2.53;;
80776;SDS011;70169;51.262;6.336;2023-10-08T05:57:37;5.90;;;2.58;;
80776;SDS011;70169;51.262;6.336;2023-10-08T06:00:01;5.20;;;2.95;;
80776;SDS011;70169;51.262;6.336;2023-10-08T06:02:16;5.03;;;2.57;;
80776;SDS011;70169;51.262;6.336;2023-10-08T06:04:50;6.18;;;3.08;;
80776;SDS011;70169;51.262;6.336;2023-10-08T06:07:24;6.32;;;3.80;;
80776;SDS011;70169;51.262;6.336;2023-10-08T06:09:48;5.80;;;2.83;;
80776;SDS011;70169;51.262;6.336;2023-10-08T06:12:17;6.93;;;3.35;;
80776;SDS011;70169;51.262;6.336;2023-10-08T06:14:45;10.13;;;3.72;;
80776;SDS011;70169;51.262;6.336;2023-10-08T06:17:19;6.63;;;3.42;;
80776;SDS011;70169;51.262;6.336;2023-10-08T06:20:00;5.90;;;3.28;;
80776;SDS011;70169;51.262;6.336;2023-10-08T06:22:25;6.63;;;3.03;;
80776;SDS011;70169;51.262;6.336;2023-10-08T06:24:41;8.45;;;3.50;;
80776;SDS011;70169;51.262;6.336;2023-10-08T06:26:56;6.30;;;3.27;;
80776;SDS011;70169;51.262;6.336;2023-10-08T06:29:12;5.67;;;3.47;;
80776;SDS011;70169;51.262;6.336;2023-10-08T06:31:33;5.40;;;2.80;;
80776;SDS011;70169;51.262;6.336;2023-10-08T06:33:51;6.82;;;3.47;;
80776;SDS011;70169;51.262;6.336;2023-10-08T06:36:07;5.70;;;2.92;;
80776;SDS011;70169;51.262;6.336;2023-10-08T06:38:26;7.28;;;4.10;;
80776;SDS011;70169;51.262;6.336;2023-10-08T06:40:42;5.93;;;3.20;;
80776;SDS011;70169;51.262;6.336;2023-10-08T06:42:58;5.93;;;3.45;;
80776;SDS011;70169;51.262;6.336;2023-10-08T06:45:18;6.82;;;3.10;;
80776;SDS011;70169;51.262;6.336;2023-10-08T06:47:33;5.47;;;2.87;;
80776;SDS011;70169;51.262;6.336;2023-10-08T06:49:49;4.97;;;2.70;;
80776;SDS011;70169;51.262;6.336;2023-10-08T06:52:06;7.25;;;3.25;;
80776;SDS011;70169;51.262;6.336;2023-10-08T06:54:26;5.20;;;2.67;;
80776;SDS011;70169;51.262;6.336;2023-10-08T06:56:45;6.25;;;2.70;;
80776;SDS011;70169;51.262;6.336;2023-10-08T06:59:01;4.47;;;2.50;;
80776;SDS011;70169;51.262;6.336;2023-10-08T07:01:18;5.07;;;2.25;;
80776;SDS011;70169;51.262;6.336;2023-10-08T07:03:39;5.22;;;2.80;;
80776;SDS011;70169;51.262;6.336;2023-10-08T07:05:55;5.57;;;2.83;;
80776;SDS011;70169;51.262;6.336;2023-10-08T07:08:13;5.30;;;2.70;;
80776;SDS011;70169;51.262;6.336;2023-10-08T07:12:45;5.10;;;2.67;;
80776;SDS011;70169;51.262;6.336;2023-10-08T07:15:01;4.85;;;2.53;;
80776;SDS011;70169;51.262;6.336;2023-10-08T07:17:18;5.90;;;2.85;;
80776;SDS011;70169;51.262;6.336;2023-10-08T07:19:34;7.15;;;2.63;;
80776;SDS011;70169;51.262;6.336;2023-10-08T07:21:52;4.15;;;2.33;;
80776;SDS011;70169;51.262;6.336;2023-10-08T07:24:13;4.78;;;2.33;;
80776;SDS011;70169;51.262;6.336;2023-10-08T07:26:36;4.65;;;2.30;;
80776;SDS011;70169;51.262;6.336;2023-10-08T07:28:52;5.90;;;2.78;;
80776;SDS011;70169;51.262;6.336;2023-10-08T07:31:14;5.45;;;2.85;;
80776;SDS011;70169;51.262;6.336;2023-10-08T07:33:36;7.22;;;3.33;;
80776;SDS011;70169;51.262;6.336;2023-10-08T07:35:52;6.30;;;3.00;;
80776;SDS011;70169;51.262;6.336;2023-10-08T07:38:12;6.07;;;2.80;;
80776;SDS011;70169;51.262;6.336;2023-10-08T07:40:28;5.93;;;2.60;;
80776;SDS011;70169;51.262;6.336;2023-10-08T07:42:44;5.35;;;2.63;;
80776;SDS011;70169;51.262;6.336;2023-10-08T07:45:00;5.73;;;2.47;;
80776;SDS011;70169;51.262;6.336;2023-10-08T07:47:15;4.50;;;2.60;;
80776;SDS011;70169;51.262;6.336;2023-10-08T07:49:31;5.43;;;2.80;;
80776;SDS011;70169;51.262;6.336;2023-10-08T07:51:46;4.18;;;2.38;;
80776;SDS011;70169;51.262;6.336;2023-10-08T07:54:07;4.78;;;2.40;;
80776;SDS011;70169;51.262;6.336;2023-10-08T07:56:31;5.38;;;2.85;;
80776;SDS011;70169;51.262;6.336;2023-10-08T07:58:46;5.83;;;2.53;;
80776;SDS011;70169;51.262;6.336;2023-10-08T08:01:06;4.10;;;2.35;;
80776;SDS011;70169;51.262;6.336;2023-10-08T08:03:23;5.32;;;2.40;;
80776;SDS011;70169;51.262;6.336;2023-10-08T08:05:39;5.38;;;2.42;;
80776;SDS011;70169;51.262;6.336;2023-10-08T08:07:55;5.93;;;2.78;;
80776;SDS011;70169;51.262;6.336;2023-10-08T08:10:13;5.68;;;2.60;;
80776;SDS011;70169;51.262;6.336;2023-10-08T08:12:29;4.43;;;2.33;;
80776;SDS011;70169;51.262;6.336;2023-10-08T08:14:47;3.97;;;2.35;;
80776;SDS011;70169;51.262;6.336;2023-10-08T08:17:03;6.22;;;2.83;;
80776;SDS011;70169;51.262;6.336;2023-10-08T08:19:28;4.70;;;2.47;;
80776;SDS011;70169;51.262;6.336;2023-10-08T08:21:46;5.00;;;2.67;;
80776;SDS011;70169;51.262;6.336;2023-10-08T08:24:01;6.30;;;3.10;;
80776;SDS011;70169;51.262;6.336;2023-10-08T08:26:20;4.93;;;2.85;;
80776;SDS011;70169;51.262;6.336;2023-10-08T08:28:44;6.03;;;3.25;;
80776;SDS011;70169;51.262;6.336;2023-10-08T08:31:01;6.25;;;3.08;;
80776;SDS011;70169;51.262;6.336;2023-10-08T08:33:19;5.90;;;3.10;;
80776;SDS011;70169;51.262;6.336;2023-10-08T08:35:38;6.88;;;2.70;;
80776;SDS011;70169;51.262;6.336;2023-10-08T08:37:53;4.45;;;2.40;;
80776;SDS011;70169;51.262;6.336;2023-10-08T08:40:10;5.03;;;2.47;;
80776;SDS011;70169;51.262;6.336;2023-10-08T08:42:35;5.13;;;2.50;;
80776;SDS011;70169;51.262;6.336;2023-10-08T08:44:51;4.93;;;2.50;;
80776;SDS011;70169;51.262;6.336;2023-10-08T08:47:09;5.47;;;3.13;;
80776;SDS011;70169;51.262;6.336;2023-10-08T08:49:33;4.97;;;2.63;;
80776;SDS011;70169;51.262;6.336;2023-10-08T08:51:52;5.18;;;2.63;;
80776;SDS011;70169;51.262;6.336;2023-10-08T08:54:10;6.40;;;3.17;;
80776;SDS011;70169;51.262;6.336;2023-10-08T08:56:27;5.72;;;2.97;;
80776;SDS011;70169;51.262;6.336;2023-10-08T08:58:44;8.10;;;3.97;;
80776;SDS011;70169;51.262;6.336;2023-10-08T09:01:00;9.13;;;3.83;;
80776;SDS011;70169;51.262;6.336;2023-10-08T09:03:18;7.85;;;3.70;;
80776;SDS011;70169;51.262;6.336;2023-10-08T09:05:34;5.57;;;3.28;;
80776;SDS011;70169;51.262;6.336;2023-10-08T09:07:57;6.75;;;3.30;;
80776;SDS011;70169;51.262;6.336;2023-10-08T09:10:20;7.82;;;3.33;;
80776;SDS011;70169;51.262;6.336;2023-10-08T09:12:41;6.88;;;3.65;;
80776;SDS011;70169;51.262;6.336;2023-10-08T09:15:01;7.88;;;4.10;;
80776;SDS011;70169;51.262;6.336;2023-10-08T09:17:17;5.43;;;3.13;;
80776;SDS011;70169;51.262;6.336;2023-10-08T09:19:36;8.03;;;3.80;;
80776;SDS011;70169;51.262;6.336;2023-10-08T09:22:02;7.97;;;4.18;;
80776;SDS011;70169;51.262;6.336;2023-10-08T09:24:19;7.50;;;3.90;;
80776;SDS011;70169;51.262;6.336;2023-10-08T09:26:35;10.40;;;4.70;;
80776;SDS011;70169;51.262;6.336;2023-10-08T09:28:52;11.50;;;5.50;;
80776;SDS011;70169;51.262;6.336;2023-10-08T09:31:09;8.00;;;4.70;;
80776;SDS011;70169;51.262;6.336;2023-10-08T09:33:27;9.02;;;4.68;;
80776;SDS011;70169;51.262;6.336;2023-10-08T09:38:02;10.65;;;5.10;;
80776;SDS011;70169;51.262;6.336;2023-10-08T09:40:18;7.95;;;5.00;;
80776;SDS011;70169;51.262;6.336;2023-10-08T09:42:36;8.48;;;4.47;;
80776;SDS011;70169;51.262;6.336;2023-10-08T09:44:53;9.63;;;4.57;;
80776;SDS011;70169;51.262;6.336;2023-10-08T09:47:09;8.30;;;4.78;;
80776;SDS011;70169;51.262;6.336;2023-10-08T09:49:30;6.78;;;3.95;;
80776;SDS011;70169;51.262;6.336;2023-10-08T09:51:47;7.70;;;3.92;;
80776;SDS011;70169;51.262;6.336;2023-10-08T09:54:11;7.50;;;4.25;;
80776;SDS011;70169;51.262;6.336;2023-10-08T09:56:35;7.18;;;4.10;;
80776;SDS011;70169;51.262;6.336;2023-10-08T09:58:54;7.22;;;3.70;;
80776;SDS011;70169;51.262;6.336;2023-10-08T10:01:09;6.75;;;4.20;;
80776;SDS011;70169;51.262;6.336;2023-10-08T10:03:26;6.68;;;4.05;;
80776;SDS011;70169;51.262;6.336;2023-10-08T10:05:42;9.45;;;5.00;;
80776;SDS011;70169;51.262;6.336;2023-10-08T10:07:58;10.40;;;5.63;;
80776;SDS011;70169;51.262;6.336;2023-10-08T10:10:25;9.23;;;4.97;;
80776;SDS011;70169;51.262;6.336;2023-10-08T10:12:42;9.18;;;4.93;;
80776;SDS011;70169;51.262;6.336;2023-10-08T10:17:19;8.98;;;4.65;;
80776;SDS011;70169;51.262;6.336;2023-10-08T10:19:38;7.13;;;4.65;;
80776;SDS011;70169;51.262;6.336;2023-10-08T10:21:53;6.53;;;4.07;;
80776;SDS011;70169;51.262;6.336;2023-10-08T10:26:50;41.55;;;22.65;;
80776;SDS011;70169;51.262;6.336;2023-10-08T10:31:32;28.13;;;14.13;;
80776;SDS011;70169;51.262;6.336;2023-10-08T10:33:49;22.20;;;11.75;;
80776;SDS011;70169;51.262;6.336;2023-10-08T10:36:05;20.43;;;9.43;;
80776;SDS011;70169;51.262;6.336;2023-10-08T10:38:23;15.98;;;8.57;;
80776;SDS011;70169;51.262;6.336;2023-10-08T10:40:41;13.98;;;7.32;;
80776;SDS011;70169;51.262;6.336;2023-10-08T10:42:57;12.37;;;7.57;;
80776;SDS011;70169;51.262;6.336;2023-10-08T10:45:15;12.00;;;7.63;;
80776;SDS011;70169;51.262;6.336;2023-10-08T10:47:52;11.80;;;7.35;;
80776;SDS011;70169;51.262;6.336;2023-10-08T10:50:24;15.82;;;8.85;;
80776;SDS011;70169;51.262;6.336;2023-10-08T10:52:46;16.02;;;8.27;;
80776;SDS011;70169;51.262;6.336;2023-10-08T10:55:08;16.80;;;8.48;;
80776;SDS011;70169;51.262;6.336;2023-10-08T10:57:32;13.27;;;7.80;;
80776;SDS011;70169;51.262;6.336;2023-10-08T10:59:59;11.98;;;7.60;;
80776;SDS011;70169;51.262;6.336;2023-10-08T11:02:33;14.82;;;7.22;;
80776;SDS011;70169;51.262;6.336;2023-10-08T11:04:54;10.35;;;6.03;;
80776;SDS011;70169;51.262;6.336;2023-10-08T11:07:25;11.05;;;6.22;;
80776;SDS011;70169;51.262;6.336;2023-10-08T11:09:41;9.90;;;5.88;;
80776;SDS011;70169;51.262;6.336;2023-10-08T11:11:59;9.50;;;6.00;;
80776;SDS011;70169;51.262;6.336;2023-10-08T11:14:17;13.38;;;6.70;;
80776;SDS011;70169;51.262;6.336;2023-10-08T11:16:33;13.32;;;7.38;;
80776;SDS011;70169;51.262;6.336;2023-10-08T11:18:50;14.23;;;9.00;;
80776;SDS011;70169;51.262;6.336;2023-10-08T11:21:06;20.52;;;11.38;;
80776;SDS011;70169;51.262;6.336;2023-10-08T11:23:34;19.08;;;10.82;;
80776;SDS011;70169;51.262;6.336;2023-10-08T11:25:57;17.27;;;10.88;;
80776;SDS011;70169;51.262;6.336;2023-10-08T11:28:17;15.45;;;8.32;;
80776;SDS011;70169;51.262;6.336;2023-10-08T11:30:33;12.90;;;7.88;;
80776;SDS011;70169;51.262;6.336;2023-10-08T11:35:05;12.55;;;6.65;;
80776;SDS011;70169;51.262;6.336;2023-10-08T11:39:49;15.53;;;9.83;;
80776;SDS011;70169;51.262;6.336;2023-10-08T11:44:32;22.63;;;10.77;;
80776;SDS011;70169;51.262;6.336;2023-10-08T11:46:51;15.23;;;8.27;;
80776;SDS011;70169;51.262;6.336;2023-10-08T11:49:06;15.80;;;8.00;;
80776;SDS011;70169;51.262;6.336;2023-10-08T11:51:35;15.95;;;8.85;;
80776;SDS011;70169;51.262;6.336;2023-10-08T11:53:51;13.20;;;7.93;;
80776;SDS011;70169;51.262;6.336;2023-10-08T11:56:06;13.73;;;7.00;;
80776;SDS011;70169;51.262;6.336;2023-10-08T11:58:28;12.25;;;7.22;;
80776;SDS011;70169;51.262;6.336;2023-10-08T12:00:52;13.77;;;7.72;;
80776;SDS011;70169;51.262;6.336;2023-10-08T12:03:07;13.87;;;7.63;;
80776;SDS011;70169;51.262;6.336;2023-10-08T12:05:25;10.02;;;5.95;;
80776;SDS011;70169;51.262;6.336;2023-10-08T12:07:43;10.45;;;6.13;;
80776;SDS011;70169;51.262;6.336;2023-10-08T12:09:58;10.23;;;6.78;;
80776;SDS011;70169;51.262;6.336;2023-10-08T12:12:14;14.35;;;8.18;;
80776;SDS011;70169;51.262;6.336;2023-10-08T12:14:30;18.30;;;12.05;;
80776;SDS011;70169;51.262;6.336;2023-10-08T12:16:46;20.80;;;14.73;;
80776;SDS011;70169;51.262;6.336;2023-10-08T12:19:01;18.83;;;12.20;;
80776;SDS011;70169;51.262;6.336;2023-10-08T12:21:21;20.17;;;12.32;;
80776;SDS011;70169;51.262;6.336;2023-10-08T12:23:37;18.65;;;10.23;;
80776;SDS011;70169;51.262;6.336;2023-10-08T12:25:53;15.23;;;10.02;;
80776;SDS011;70169;51.262;6.336;2023-10-08T12:28:10;15.52;;;9.43;;
80776;SDS011;70169;51.262;6.336;2023-10-08T12:30:26;14.35;;;9.75;;
80776;SDS011;70169;51.262;6.336;2023-10-08T12:32:45;12.85;;;8.43;;
80776;SDS011;70169;51.262;6.336;2023-10-08T12:35:01;13.50;;;7.97;;
80776;SDS011;70169;51.262;6.336;2023-10-08T12:37:16;11.90;;;7.07;;
80776;SDS011;70169;51.262;6.336;2023-10-08T12:39:32;11.57;;;6.95;;
80776;SDS011;70169;51.262;6.336;2023-10-08T12:41:57;9.73;;;6.18;;
80776;SDS011;70169;51.262;6.336;2023-10-08T12:44:20;10.68;;;6.28;;
80776;SDS011;70169;51.262;6.336;2023-10-08T12:48:52;10.43;;;6.17;;
80776;SDS011;70169;51.262;6.336;2023-10-08T12:51:09;13.43;;;7.45;;
80776;SDS011;70169;51.262;6.336;2023-10-08T12:53:26;14.77;;;8.52;;
80776;SDS011;70169;51.262;6.336;2023-10-08T12:55:48;15.80;;;8.82;;
80776;SDS011;70169;51.262;6.336;2023-10-08T12:58:08;20.02;;;10.75;;
80776;SDS011;70169;51.262;6.336;2023-10-08T13:00:26;16.05;;;8.88;;
80776;SDS011;70169;51.262;6.336;2023-10-08T13:02:41;22.73;;;13.87;;
80776;SDS011;70169;51.262;6.336;2023-10-08T13:04:57;23.98;;;13.23;;
80776;SDS011;70169;51.262;6.336;2023-10-08T13:07:14;26.08;;;16.30;;
80776;SDS011;70169;51.262;6.336;2023-10-08T13:09:36;20.75;;;12.35;;
80776;SDS011;70169;51.262;6.336;2023-10-08T13:11:52;21.97;;;11.53;;
80776;SDS011;70169;51.262;6.336;2023-10-08T13:14:07;16.10;;;8.98;;
80776;SDS011;70169;51.262;6.336;2023-10-08T13:16:23;12.43;;;7.67;;
80776;SDS011;70169;51.262;6.336;2023-10-08T13:18:40;13.75;;;6.80;;
80776;SDS011;70169;51.262;6.336;2023-10-08T13:20:58;9.57;;;6.10;;
80776;SDS011;70169;51.262;6.336;2023-10-08T13:23:13;11.70;;;6.55;;
80776;SDS011;70169;51.262;6.336;2023-10-08T13:25:29;13.83;;;7.50;;
80776;SDS011;70169;51.262;6.336;2023-10-08T13:27:48;13.10;;;6.15;;
80776;SDS011;70169;51.262;6.336;2023-10-08T13:30:03;10.97;;;6.33;;
80776;SDS011;70169;51.262;6.336;2023-10-08T13:32:20;12.73;;;7.63;;
80776;SDS011;70169;51.262;6.336;2023-10-08T13:34:36;12.80;;;7.28;;
80776;SDS011;70169;51.262;6.336;2023-10-08T13:36:51;11.83;;;6.53;;
80776;SDS011;70169;51.262;6.336;2023-10-08T13:39:06;10.98;;;5.25;;
80776;SDS011;70169;51.262;6.336;2023-10-08T13:41:36;12.13;;;6.85;;
80776;SDS011;70169;51.262;6.336;2023-10-08T13:43:53;14.63;;;7.25;;
80776;SDS011;70169;51.262;6.336;2023-10-08T13:46:15;11.35;;;6.60;;
80776;SDS011;70169;51.262;6.336;2023-10-08T13:48:35;12.60;;;7.10;;
80776;SDS011;70169;51.262;6.336;2023-10-08T13:50:50;11.55;;;5.13;;
80776;SDS011;70169;51.262;6.336;2023-10-08T13:53:07;11.63;;;5.90;;
80776;SDS011;70169;51.262;6.336;2023-10-08T13:55:23;9.73;;;6.00;;
80776;SDS011;70169;51.262;6.336;2023-10-08T13:57:40;12.20;;;6.60;;
80776;SDS011;70169;51.262;6.336;2023-10-08T13:59:57;16.00;;;8.10;;
80776;SDS011;70169;51.262;6.336;2023-10-08T14:02:14;11.32;;;6.60;;
80776;SDS011;70169;51.262;6.336;2023-10-08T14:04:30;11.10;;;5.88;;
80776;SDS011;70169;51.262;6.336;2023-10-08T14:06:45;9.87;;;5.80;;
80776;SDS011;70169;51.262;6.336;2023-10-08T14:09:08;9.95;;;5.38;;
80776;SDS011;70169;51.262;6.336;2023-10-08T14:11:27;9.98;;;5.70;;
80776;SDS011;70169;51.262;6.336;2023-10-08T14:13:45;15.32;;;8.40;;
80776;SDS011;70169;51.262;6.336;2023-10-08T14:16:02;16.95;;;9.32;;
80776;SDS011;70169;51.262;6.336;2023-10-08T14:18:23;15.73;;;8.73;;
80776;SDS011;70169;51.262;6.336;2023-10-08T14:20:44;13.95;;;8.27;;
80776;SDS011;70169;51.262;6.336;2023-10-08T14:23:01;12.13;;;7.05;;
80776;SDS011;70169;51.262;6.336;2023-10-08T14:25:19;10.98;;;6.70;;